sensor_id;sensor_type;location;lat;lon;timestamp;temperature;humidity
19941;DHT22;10132;50.864;5.176;2022-12-16T00:01:51;-3.40;99.90
19941;DHT22;10132;50.864;5.176;2022-12-16T00:03:54;-3.50;99.90
19941;DHT22;10132;50.864;5.176;2022-12-16T00:05:56;-3.40;99.90
19941;DHT22;10132;50.864;5.176;2022-12-16T00:07:58;-3.30;99.90
19941;DHT22;10132;50.864;5.176;2022-12-16T00:10:00;-3.10;99.90
19941;DHT22;10132;50.864;5.176;2022-12-16T00:12:03;-3.00;99.90
19941;DHT22;10132;50.864;5.176;2022-12-16T00:14:06;-3.00;99.90
19941;DHT22;10132;50.864;5.176;2022-12-16T00:16:10;-3.00;99.90
19941;DHT22;10132;50.864;5.176;2022-12-16T00:18:12;-2.90;99.90
19941;DHT22;10132;50.864;5.176;2022-12-16T00:20:15;-2.90;99.90
19941;DHT22;10132;50.864;5.176;2022-12-16T00:22:17;-2.90;99.90
19941;DHT22;10132;50.864;5.176;2022-12-16T00:24:19;-2.90;99.90
19941;DHT22;10132;50.864;5.176;2022-12-16T00:26:21;-2.90;99.90
19941;DHT22;10132;50.864;5.176;2022-12-16T00:28:23;-2.80;99.90
19941;DHT22;10132;50.864;5.176;2022-12-16T00:30:26;-2.70;99.90
19941;DHT22;10132;50.864;5.176;2022-12-16T00:32:28;-2.60;99.90
19941;DHT22;10132;50.864;5.176;2022-12-16T00:34:30;-2.60;99.90
19941;DHT22;10132;50.864;5.176;2022-12-16T00:36:32;-2.40;99.90
19941;DHT22;10132;50.864;5.176;2022-12-16T00:38:34;-2.30;99.90
19941;DHT22;10132;50.864;5.176;2022-12-16T00:40:37;-2.20;99.90
19941;DHT22;10132;50.864;5.176;2022-12-16T00:42:39;-2.40;99.90
19941;DHT22;10132;50.864;5.176;2022-12-16T00:44:41;-2.40;99.90
19941;DHT22;10132;50.864;5.176;2022-12-16T00:46:44;-2.50;99.90
19941;DHT22;10132;50.864;5.176;2022-12-16T00:48:46;-2.40;99.90
19941;DHT22;10132;50.864;5.176;2022-12-16T00:50:49;-2.30;99.90
19941;DHT22;10132;50.864;5.176;2022-12-16T00:52:52;-2.40;99.90
19941;DHT22;10132;50.864;5.176;2022-12-16T00:54:54;-2.40;99.90
19941;DHT22;10132;50.864;5.176;2022-12-16T00:56:56;-2.50;99.90
19941;DHT22;10132;50.864;5.176;2022-12-16T00:58:57;-2.50;99.90
19941;DHT22;10132;50.864;5.176;2022-12-16T01:01:00;-2.40;99.90
19941;DHT22;10132;50.864;5.176;2022-12-16T01:03:03;-2.30;99.90
19941;DHT22;10132;50.864;5.176;2022-12-16T01:05:06;-2.40;99.90
19941;DHT22;10132;50.864;5.176;2022-12-16T01:07:08;-2.30;99.90
19941;DHT22;10132;50.864;5.176;2022-12-16T01:09:10;-2.30;99.90
19941;DHT22;10132;50.864;5.176;2022-12-16T01:11:12;-2.40;99.90
19941;DHT22;10132;50.864;5.176;2022-12-16T01:13:15;-2.40;99.90
19941;DHT22;10132;50.864;5.176;2022-12-16T01:15:17;-2.30;99.90
19941;DHT22;10132;50.864;5.176;2022-12-16T01:17:20;-2.30;99.90
19941;DHT22;10132;50.864;5.176;2022-12-16T01:19:23;-2.20;99.90
19941;DHT22;10132;50.864;5.176;2022-12-16T01:21:25;-2.10;99.90
19941;DHT22;10132;50.864;5.176;2022-12-16T01:23:27;-2.00;99.90
19941;DHT22;10132;50.864;5.176;2022-12-16T01:25:29;-2.10;99.90
19941;DHT22;10132;50.864;5.176;2022-12-16T01:27:31;-2.10;99.90
19941;DHT22;10132;50.864;5.176;2022-12-16T01:29:33;-2.10;99.90
19941;DHT22;10132;50.864;5.176;2022-12-16T01:31:35;-2.10;99.90
19941;DHT22;10132;50.864;5.176;2022-12-16T01:33:37;-2.10;99.90
19941;DHT22;10132;50.864;5.176;2022-12-16T01:35:40;-2.10;99.90
19941;DHT22;10132;50.864;5.176;2022-12-16T01:37:42;-2.00;99.90
19941;DHT22;10132;50.864;5.176;2022-12-16T01:39:44;-1.90;99.90
19941;DHT22;10132;50.864;5.176;2022-12-16T01:41:46;-1.90;99.90
19941;DHT22;10132;50.864;5.176;2022-12-16T01:43:48;-1.90;99.90
19941;DHT22;10132;50.864;5.176;2022-12-16T01:45:51;-1.80;99.90
19941;DHT22;10132;50.864;5.176;2022-12-16T01:47:55;-1.80;99.90
19941;DHT22;10132;50.864;5.176;2022-12-16T01:50:02;-1.80;99.90
19941;DHT22;10132;50.864;5.176;2022-12-16T01:52:09;-1.70;99.90
19941;DHT22;10132;50.864;5.176;2022-12-16T01:54:17;-1.70;99.90
19941;DHT22;10132;50.864;5.176;2022-12-16T01:56:21;-1.70;99.90
19941;DHT22;10132;50.864;5.176;2022-12-16T01:58:27;-1.70;99.90
19941;DHT22;10132;50.864;5.176;2022-12-16T02:00:30;-1.80;99.90
19941;DHT22;10132;50.864;5.176;2022-12-16T02:02:34;-1.70;99.90
19941;DHT22;10132;50.864;5.176;2022-12-16T02:04:37;-1.70;99.90
19941;DHT22;10132;50.864;5.176;2022-12-16T02:06:59;-1.70;99.90
19941;DHT22;10132;50.864;5.176;2022-12-16T02:09:06;-1.60;99.90
19941;DHT22;10132;50.864;5.176;2022-12-16T02:11:31;-1.60;99.90
19941;DHT22;10132;50.864;5.176;2022-12-16T02:13:48;-1.60;99.90
19941;DHT22;10132;50.864;5.176;2022-12-16T02:15:58;-1.70;99.90
19941;DHT22;10132;50.864;5.176;2022-12-16T02:18:07;-1.50;99.90
19941;DHT22;10132;50.864;5.176;2022-12-16T02:22:52;-1.50;99.90
19941;DHT22;10132;50.864;5.176;2022-12-16T02:25:19;-1.40;99.90
19941;DHT22;10132;50.864;5.176;2022-12-16T02:27:52;-1.50;99.90
19941;DHT22;10132;50.864;5.176;2022-12-16T02:32:42;-1.60;99.90
19941;DHT22;10132;50.864;5.176;2022-12-16T02:34:53;-1.60;99.90
19941;DHT22;10132;50.864;5.176;2022-12-16T02:37:06;-1.50;99.90
19941;DHT22;10132;50.864;5.176;2022-12-16T02:39:20;-1.60;99.90
19941;DHT22;10132;50.864;5.176;2022-12-16T02:41:26;-1.70;99.90
19941;DHT22;10132;50.864;5.176;2022-12-16T02:43:42;-1.70;99.90
19941;DHT22;10132;50.864;5.176;2022-12-16T02:45:51;-1.70;99.90
19941;DHT22;10132;50.864;5.176;2022-12-16T02:47:55;-1.70;99.90
19941;DHT22;10132;50.864;5.176;2022-12-16T02:49:57;-1.60;99.90
19941;DHT22;10132;50.864;5.176;2022-12-16T02:51:59;-1.60;99.90
19941;DHT22;10132;50.864;5.176;2022-12-16T02:54:03;-1.50;99.90
19941;DHT22;10132;50.864;5.176;2022-12-16T02:56:14;-1.70;99.90
19941;DHT22;10132;50.864;5.176;2022-12-16T02:58:24;-1.80;99.90
19941;DHT22;10132;50.864;5.176;2022-12-16T03:00:36;-2.00;99.90
19941;DHT22;10132;50.864;5.176;2022-12-16T03:02:46;-2.10;99.90
19941;DHT22;10132;50.864;5.176;2022-12-16T03:04:55;-2.00;99.90
19941;DHT22;10132;50.864;5.176;2022-12-16T03:06:59;-1.90;99.90
19941;DHT22;10132;50.864;5.176;2022-12-16T03:09:05;-2.10;99.90
19941;DHT22;10132;50.864;5.176;2022-12-16T03:11:09;-2.00;99.90
19941;DHT22;10132;50.864;5.176;2022-12-16T03:13:12;-1.90;99.90
19941;DHT22;10132;50.864;5.176;2022-12-16T03:15:18;-2.00;99.90
19941;DHT22;10132;50.864;5.176;2022-12-16T03:17:23;-2.00;99.90
19941;DHT22;10132;50.864;5.176;2022-12-16T03:19:26;-2.00;99.90
19941;DHT22;10132;50.864;5.176;2022-12-16T03:21:35;-2.10;99.90
19941;DHT22;10132;50.864;5.176;2022-12-16T03:23:42;-2.20;99.90
19941;DHT22;10132;50.864;5.176;2022-12-16T03:25:48;-2.30;99.90
19941;DHT22;10132;50.864;5.176;2022-12-16T03:27:56;-2.20;99.90
19941;DHT22;10132;50.864;5.176;2022-12-16T03:30:03;-2.30;99.90
19941;DHT22;10132;50.864;5.176;2022-12-16T03:32:10;-2.20;99.90
19941;DHT22;10132;50.864;5.176;2022-12-16T03:34:18;-2.00;99.90
19941;DHT22;10132;50.864;5.176;2022-12-16T03:36:24;-1.90;99.90
19941;DHT22;10132;50.864;5.176;2022-12-16T03:38:30;-2.00;99.90
19941;DHT22;10132;50.864;5.176;2022-12-16T03:40:33;-2.10;99.90
19941;DHT22;10132;50.864;5.176;2022-12-16T03:42:37;-2.10;99.90
19941;DHT22;10132;50.864;5.176;2022-12-16T03:44:39;-2.00;99.90
19941;DHT22;10132;50.864;5.176;2022-12-16T03:46:42;-1.90;99.90
19941;DHT22;10132;50.864;5.176;2022-12-16T03:48:46;-2.10;99.90
19941;DHT22;10132;50.864;5.176;2022-12-16T03:50:48;-2.00;99.90
19941;DHT22;10132;50.864;5.176;2022-12-16T03:52:50;-1.90;99.90
19941;DHT22;10132;50.864;5.176;2022-12-16T03:54:53;-1.80;99.90
19941;DHT22;10132;50.864;5.176;2022-12-16T03:56:55;-1.70;99.90
19941;DHT22;10132;50.864;5.176;2022-12-16T03:58:57;-1.90;99.90
19941;DHT22;10132;50.864;5.176;2022-12-16T04:00:59;-1.90;99.90
19941;DHT22;10132;50.864;5.176;2022-12-16T04:03:01;-1.80;99.90
19941;DHT22;10132;50.864;5.176;2022-12-16T04:05:04;-1.70;99.90
19941;DHT22;10132;50.864;5.176;2022-12-16T04:07:06;-1.70;99.90
19941;DHT22;10132;50.864;5.176;2022-12-16T04:09:24;-1.60;99.90
19941;DHT22;10132;50.864;5.176;2022-12-16T04:11:27;-1.50;99.90
19941;DHT22;10132;50.864;5.176;2022-12-16T04:13:46;-1.50;99.90
19941;DHT22;10132;50.864;5.176;2022-12-16T04:16:07;-1.50;99.90
19941;DHT22;10132;50.864;5.176;2022-12-16T04:18:27;-1.60;99.90
19941;DHT22;10132;50.864;5.176;2022-12-16T04:20:48;-1.50;99.90
19941;DHT22;10132;50.864;5.176;2022-12-16T04:23:09;-1.50;99.90
19941;DHT22;10132;50.864;5.176;2022-12-16T04:25:32;-1.50;99.90
19941;DHT22;10132;50.864;5.176;2022-12-16T04:27:36;-1.60;99.90
19941;DHT22;10132;50.864;5.176;2022-12-16T04:29:38;-1.60;99.90
19941;DHT22;10132;50.864;5.176;2022-12-16T04:32:03;-1.50;99.90
19941;DHT22;10132;50.864;5.176;2022-12-16T04:34:05;-1.40;99.90
19941;DHT22;10132;50.864;5.176;2022-12-16T04:36:24;-1.40;99.90
19941;DHT22;10132;50.864;5.176;2022-12-16T04:38:44;-1.50;99.90
19941;DHT22;10132;50.864;5.176;2022-12-16T04:41:03;-1.50;99.90
19941;DHT22;10132;50.864;5.176;2022-12-16T04:43:29;-1.50;99.90
19941;DHT22;10132;50.864;5.176;2022-12-16T04:45:49;-1.50;99.90
19941;DHT22;10132;50.864;5.176;2022-12-16T04:48:20;-1.50;99.90
19941;DHT22;10132;50.864;5.176;2022-12-16T04:50:39;-1.60;99.90
19941;DHT22;10132;50.864;5.176;2022-12-16T04:52:59;-1.50;99.90
19941;DHT22;10132;50.864;5.176;2022-12-16T04:55:18;-1.50;99.90
19941;DHT22;10132;50.864;5.176;2022-12-16T04:57:37;-1.50;99.90
19941;DHT22;10132;50.864;5.176;2022-12-16T04:59:58;-1.50;99.90
19941;DHT22;10132;50.864;5.176;2022-12-16T05:02:17;-1.50;99.90
19941;DHT22;10132;50.864;5.176;2022-12-16T05:04:48;-1.60;99.90
19941;DHT22;10132;50.864;5.176;2022-12-16T05:07:07;-1.70;99.90
19941;DHT22;10132;50.864;5.176;2022-12-16T05:09:26;-1.60;99.90
19941;DHT22;10132;50.864;5.176;2022-12-16T05:11:45;-1.50;99.90
19941;DHT22;10132;50.864;5.176;2022-12-16T05:14:05;-1.60;99.90
19941;DHT22;10132;50.864;5.176;2022-12-16T05:16:25;-1.50;99.90
19941;DHT22;10132;50.864;5.176;2022-12-16T05:18:44;-1.50;99.90
19941;DHT22;10132;50.864;5.176;2022-12-16T05:21:04;-1.50;99.90
19941;DHT22;10132;50.864;5.176;2022-12-16T05:23:23;-1.40;99.90
19941;DHT22;10132;50.864;5.176;2022-12-16T05:25:45;-1.30;99.90
19941;DHT22;10132;50.864;5.176;2022-12-16T05:28:04;-1.30;99.90
19941;DHT22;10132;50.864;5.176;2022-12-16T05:30:24;-1.40;99.90
19941;DHT22;10132;50.864;5.176;2022-12-16T05:32:47;-1.50;99.90
19941;DHT22;10132;50.864;5.176;2022-12-16T05:35:07;-1.40;99.90
19941;DHT22;10132;50.864;5.176;2022-12-16T05:37:26;-1.50;99.90
19941;DHT22;10132;50.864;5.176;2022-12-16T05:39:46;-1.40;99.90
19941;DHT22;10132;50.864;5.176;2022-12-16T05:42:05;-1.30;99.90
19941;DHT22;10132;50.864;5.176;2022-12-16T05:44:24;-1.40;99.90
19941;DHT22;10132;50.864;5.176;2022-12-16T05:46:43;-1.30;99.90
19941;DHT22;10132;50.864;5.176;2022-12-16T05:49:04;-1.30;99.90
19941;DHT22;10132;50.864;5.176;2022-12-16T05:51:23;-1.30;99.90
19941;DHT22;10132;50.864;5.176;2022-12-16T05:53:43;-1.30;99.90
19941;DHT22;10132;50.864;5.176;2022-12-16T05:56:02;-1.30;99.90
19941;DHT22;10132;50.864;5.176;2022-12-16T05:58:21;-1.30;99.90
19941;DHT22;10132;50.864;5.176;2022-12-16T06:00:41;-1.30;99.90
19941;DHT22;10132;50.864;5.176;2022-12-16T06:03:00;-1.20;99.90
19941;DHT22;10132;50.864;5.176;2022-12-16T06:05:21;-1.30;99.90
19941;DHT22;10132;50.864;5.176;2022-12-16T06:07:40;-1.20;99.90
19941;DHT22;10132;50.864;5.176;2022-12-16T06:09:59;-1.10;99.90
19941;DHT22;10132;50.864;5.176;2022-12-16T06:12:18;-1.00;99.90
19941;DHT22;10132;50.864;5.176;2022-12-16T06:14:37;-0.90;99.90
19941;DHT22;10132;50.864;5.176;2022-12-16T06:16:56;-0.70;99.90
19941;DHT22;10132;50.864;5.176;2022-12-16T06:19:16;-0.60;99.90
19941;DHT22;10132;50.864;5.176;2022-12-16T06:21:37;-0.70;99.90
19941;DHT22;10132;50.864;5.176;2022-12-16T06:23:55;-0.80;99.90
19941;DHT22;10132;50.864;5.176;2022-12-16T06:26:15;-0.90;99.90
19941;DHT22;10132;50.864;5.176;2022-12-16T06:28:34;-0.70;99.90
19941;DHT22;10132;50.864;5.176;2022-12-16T06:30:53;-0.50;99.90
19941;DHT22;10132;50.864;5.176;2022-12-16T06:33:13;-0.50;99.90
19941;DHT22;10132;50.864;5.176;2022-12-16T06:35:32;-0.40;99.90
19941;DHT22;10132;50.864;5.176;2022-12-16T06:37:52;-0.40;99.90
19941;DHT22;10132;50.864;5.176;2022-12-16T06:40:12;-0.50;99.90
19941;DHT22;10132;50.864;5.176;2022-12-16T06:42:31;-0.40;99.90
19941;DHT22;10132;50.864;5.176;2022-12-16T06:44:50;-0.30;99.90
19941;DHT22;10132;50.864;5.176;2022-12-16T06:47:09;-0.30;99.90
19941;DHT22;10132;50.864;5.176;2022-12-16T06:49:29;-0.50;99.90
19941;DHT22;10132;50.864;5.176;2022-12-16T06:51:48;-0.50;99.90
19941;DHT22;10132;50.864;5.176;2022-12-16T06:54:09;-0.60;99.90
19941;DHT22;10132;50.864;5.176;2022-12-16T06:56:28;-0.70;99.90
19941;DHT22;10132;50.864;5.176;2022-12-16T06:58:48;-0.80;99.90
19941;DHT22;10132;50.864;5.176;2022-12-16T07:01:07;-0.80;99.90
19941;DHT22;10132;50.864;5.176;2022-12-16T07:03:26;-0.80;99.90
19941;DHT22;10132;50.864;5.176;2022-12-16T07:05:46;-0.90;99.90
19941;DHT22;10132;50.864;5.176;2022-12-16T07:08:05;-1.00;99.90
19941;DHT22;10132;50.864;5.176;2022-12-16T07:10:25;-0.90;99.90
19941;DHT22;10132;50.864;5.176;2022-12-16T07:12:45;-0.90;99.90
19941;DHT22;10132;50.864;5.176;2022-12-16T07:15:05;-0.90;99.90
19941;DHT22;10132;50.864;5.176;2022-12-16T07:17:24;-0.90;99.90
19941;DHT22;10132;50.864;5.176;2022-12-16T07:19:44;-0.80;99.90
19941;DHT22;10132;50.864;5.176;2022-12-16T07:22:03;-0.80;99.90
19941;DHT22;10132;50.864;5.176;2022-12-16T07:24:22;-0.80;99.90
19941;DHT22;10132;50.864;5.176;2022-12-16T07:26:43;-0.70;99.90
19941;DHT22;10132;50.864;5.176;2022-12-16T07:29:03;-0.80;99.90
19941;DHT22;10132;50.864;5.176;2022-12-16T07:31:22;-0.70;99.90
19941;DHT22;10132;50.864;5.176;2022-12-16T07:33:41;-0.80;99.90
19941;DHT22;10132;50.864;5.176;2022-12-16T07:36:01;-0.70;99.90
19941;DHT22;10132;50.864;5.176;2022-12-16T07:38:17;-0.60;99.90
19941;DHT22;10132;50.864;5.176;2022-12-16T07:40:36;-0.70;99.90
19941;DHT22;10132;50.864;5.176;2022-12-16T07:42:57;-0.70;99.90
19941;DHT22;10132;50.864;5.176;2022-12-16T07:45:16;-0.70;99.90
19941;DHT22;10132;50.864;5.176;2022-12-16T07:47:35;-0.70;99.90
19941;DHT22;10132;50.864;5.176;2022-12-16T07:49:55;-0.70;99.90
19941;DHT22;10132;50.864;5.176;2022-12-16T07:52:14;-0.60;99.90
19941;DHT22;10132;50.864;5.176;2022-12-16T07:54:33;-0.60;99.90
19941;DHT22;10132;50.864;5.176;2022-12-16T07:56:53;-0.60;99.90
19941;DHT22;10132;50.864;5.176;2022-12-16T07:59:16;-0.60;99.90
19941;DHT22;10132;50.864;5.176;2022-12-16T08:01:35;-0.60;99.90
19941;DHT22;10132;50.864;5.176;2022-12-16T08:03:54;-0.50;99.90
19941;DHT22;10132;50.864;5.176;2022-12-16T08:06:13;-0.60;99.90
19941;DHT22;10132;50.864;5.176;2022-12-16T08:08:33;-0.60;99.90
19941;DHT22;10132;50.864;5.176;2022-12-16T08:10:52;-0.50;99.90
19941;DHT22;10132;50.864;5.176;2022-12-16T08:13:11;-0.20;99.90
19941;DHT22;10132;50.864;5.176;2022-12-16T08:15:32;-0.10;99.90
19941;DHT22;10132;50.864;5.176;2022-12-16T08:17:52;0.00;99.90
19941;DHT22;10132;50.864;5.176;2022-12-16T08:20:11;0.10;99.90
19941;DHT22;10132;50.864;5.176;2022-12-16T08:22:31;0.10;99.90
19941;DHT22;10132;50.864;5.176;2022-12-16T08:24:50;0.10;99.90
19941;DHT22;10132;50.864;5.176;2022-12-16T08:27:09;0.10;99.90
19941;DHT22;10132;50.864;5.176;2022-12-16T08:29:28;0.10;99.90
19941;DHT22;10132;50.864;5.176;2022-12-16T08:31:50;-0.10;99.90
19941;DHT22;10132;50.864;5.176;2022-12-16T08:34:09;-0.10;99.90
19941;DHT22;10132;50.864;5.176;2022-12-16T08:36:29;0.00;99.90
19941;DHT22;10132;50.864;5.176;2022-12-16T08:38:48;-0.10;99.90
19941;DHT22;10132;50.864;5.176;2022-12-16T08:41:07;0.00;99.90
19941;DHT22;10132;50.864;5.176;2022-12-16T08:43:29;0.00;99.90
19941;DHT22;10132;50.864;5.176;2022-12-16T08:45:51;0.10;99.90
19941;DHT22;10132;50.864;5.176;2022-12-16T08:48:13;0.20;99.90
19941;DHT22;10132;50.864;5.176;2022-12-16T08:50:32;0.30;99.90
19941;DHT22;10132;50.864;5.176;2022-12-16T08:52:51;0.20;99.90
19941;DHT22;10132;50.864;5.176;2022-12-16T08:55:07;0.10;99.90
19941;DHT22;10132;50.864;5.176;2022-12-16T08:57:26;0.10;99.90
19941;DHT22;10132;50.864;5.176;2022-12-16T08:59:46;0.10;99.90
19941;DHT22;10132;50.864;5.176;2022-12-16T09:02:05;0.10;99.90
19941;DHT22;10132;50.864;5.176;2022-12-16T09:04:26;0.00;99.90
19941;DHT22;10132;50.864;5.176;2022-12-16T09:06:45;0.10;99.90
19941;DHT22;10132;50.864;5.176;2022-12-16T09:09:05;0.20;99.90
19941;DHT22;10132;50.864;5.176;2022-12-16T09:11:24;0.20;99.90
19941;DHT22;10132;50.864;5.176;2022-12-16T09:13:43;0.20;99.90
19941;DHT22;10132;50.864;5.176;2022-12-16T09:16:03;0.20;99.90
19941;DHT22;10132;50.864;5.176;2022-12-16T09:18:22;0.30;99.90
19941;DHT22;10132;50.864;5.176;2022-12-16T09:20:43;0.40;99.90
19941;DHT22;10132;50.864;5.176;2022-12-16T09:23:03;0.50;99.90
19941;DHT22;10132;50.864;5.176;2022-12-16T09:25:22;0.50;99.90
19941;DHT22;10132;50.864;5.176;2022-12-16T09:27:41;0.50;99.90
19941;DHT22;10132;50.864;5.176;2022-12-16T09:30:01;0.60;99.90
19941;DHT22;10132;50.864;5.176;2022-12-16T09:32:21;0.60;99.90
19941;DHT22;10132;50.864;5.176;2022-12-16T09:34:40;0.70;99.90
19941;DHT22;10132;50.864;5.176;2022-12-16T09:37:01;0.70;99.90
19941;DHT22;10132;50.864;5.176;2022-12-16T09:39:21;0.80;99.90
19941;DHT22;10132;50.864;5.176;2022-12-16T09:41:42;0.90;99.90
19941;DHT22;10132;50.864;5.176;2022-12-16T09:44:08;0.80;99.90
19941;DHT22;10132;50.864;5.176;2022-12-16T09:46:36;0.80;99.90
19941;DHT22;10132;50.864;5.176;2022-12-16T09:49:09;0.80;99.90
19941;DHT22;10132;50.864;5.176;2022-12-16T09:51:30;0.80;99.90
19941;DHT22;10132;50.864;5.176;2022-12-16T09:53:55;0.80;99.90
19941;DHT22;10132;50.864;5.176;2022-12-16T09:56:16;0.90;99.90
19941;DHT22;10132;50.864;5.176;2022-12-16T10:01:00;1.00;99.90
19941;DHT22;10132;50.864;5.176;2022-12-16T10:03:22;1.00;99.90
19941;DHT22;10132;50.864;5.176;2022-12-16T10:05:47;1.00;99.90
19941;DHT22;10132;50.864;5.176;2022-12-16T10:08:17;1.00;99.90
19941;DHT22;10132;50.864;5.176;2022-12-16T10:10:48;1.10;99.90
19941;DHT22;10132;50.864;5.176;2022-12-16T10:13:15;1.10;99.90
19941;DHT22;10132;50.864;5.176;2022-12-16T10:15:42;1.10;99.90
19941;DHT22;10132;50.864;5.176;2022-12-16T10:18:09;1.30;99.90
19941;DHT22;10132;50.864;5.176;2022-12-16T10:20:43;1.30;99.90
19941;DHT22;10132;50.864;5.176;2022-12-16T10:23:08;1.30;99.90
19941;DHT22;10132;50.864;5.176;2022-12-16T10:25:34;1.40;99.90
19941;DHT22;10132;50.864;5.176;2022-12-16T10:28:01;1.40;99.90
19941;DHT22;10132;50.864;5.176;2022-12-16T10:30:35;1.40;99.90
19941;DHT22;10132;50.864;5.176;2022-12-16T10:32:56;1.40;99.90
19941;DHT22;10132;50.864;5.176;2022-12-16T10:35:21;1.40;99.90
19941;DHT22;10132;50.864;5.176;2022-12-16T10:37:42;1.50;99.90
19941;DHT22;10132;50.864;5.176;2022-12-16T10:40:02;1.50;99.90
19941;DHT22;10132;50.864;5.176;2022-12-16T10:42:46;1.40;99.90
19941;DHT22;10132;50.864;5.176;2022-12-16T10:45:16;1.30;99.90
19941;DHT22;10132;50.864;5.176;2022-12-16T10:47:37;1.10;99.90
19941;DHT22;10132;50.864;5.176;2022-12-16T10:49:57;1.10;99.90
19941;DHT22;10132;50.864;5.176;2022-12-16T10:52:17;1.10;99.90
19941;DHT22;10132;50.864;5.176;2022-12-16T10:54:40;1.10;99.90
19941;DHT22;10132;50.864;5.176;2022-12-16T10:57:07;1.20;99.90
19941;DHT22;10132;50.864;5.176;2022-12-16T10:59:34;1.30;99.90
19941;DHT22;10132;50.864;5.176;2022-12-16T11:01:58;1.40;99.90
19941;DHT22;10132;50.864;5.176;2022-12-16T11:04:31;1.40;99.90
19941;DHT22;10132;50.864;5.176;2022-12-16T11:06:51;1.40;99.90
19941;DHT22;10132;50.864;5.176;2022-12-16T11:09:27;1.50;99.90
19941;DHT22;10132;50.864;5.176;2022-12-16T11:11:47;1.60;99.90
19941;DHT22;10132;50.864;5.176;2022-12-16T11:14:19;1.70;99.90
19941;DHT22;10132;50.864;5.176;2022-12-16T11:16:39;1.80;99.90
19941;DHT22;10132;50.864;5.176;2022-12-16T11:19:00;1.90;99.90
19941;DHT22;10132;50.864;5.176;2022-12-16T11:21:20;1.90;99.90
19941;DHT22;10132;50.864;5.176;2022-12-16T11:23:39;2.00;99.90
19941;DHT22;10132;50.864;5.176;2022-12-16T11:26:04;2.00;99.90
19941;DHT22;10132;50.864;5.176;2022-12-16T11:28:24;2.10;99.90
19941;DHT22;10132;50.864;5.176;2022-12-16T11:30:50;2.10;99.90
19941;DHT22;10132;50.864;5.176;2022-12-16T11:33:14;2.00;99.90
19941;DHT22;10132;50.864;5.176;2022-12-16T11:35:40;1.90;99.90
19941;DHT22;10132;50.864;5.176;2022-12-16T11:38:15;2.10;99.90
19941;DHT22;10132;50.864;5.176;2022-12-16T11:40:37;2.20;99.90
19941;DHT22;10132;50.864;5.176;2022-12-16T11:43:01;2.30;99.90
19941;DHT22;10132;50.864;5.176;2022-12-16T11:45:22;2.30;99.90
19941;DHT22;10132;50.864;5.176;2022-12-16T11:47:45;2.40;99.90
19941;DHT22;10132;50.864;5.176;2022-12-16T11:50:10;2.50;99.90
19941;DHT22;10132;50.864;5.176;2022-12-16T11:52:33;2.50;99.90
19941;DHT22;10132;50.864;5.176;2022-12-16T11:54:57;2.50;99.90
19941;DHT22;10132;50.864;5.176;2022-12-16T11:57:19;2.50;99.90
19941;DHT22;10132;50.864;5.176;2022-12-16T11:59:43;2.60;99.90
19941;DHT22;10132;50.864;5.176;2022-12-16T12:02:11;2.60;99.90
19941;DHT22;10132;50.864;5.176;2022-12-16T12:04:32;2.50;99.90
19941;DHT22;10132;50.864;5.176;2022-12-16T12:09:41;2.60;99.90
19941;DHT22;10132;50.864;5.176;2022-12-16T12:12:11;2.60;99.90
19941;DHT22;10132;50.864;5.176;2022-12-16T12:14:35;2.70;99.90
19941;DHT22;10132;50.864;5.176;2022-12-16T12:17:07;2.80;99.90
19941;DHT22;10132;50.864;5.176;2022-12-16T12:19:40;3.00;99.90
19941;DHT22;10132;50.864;5.176;2022-12-16T12:22:09;3.10;99.90
19941;DHT22;10132;50.864;5.176;2022-12-16T12:24:39;3.00;99.90
19941;DHT22;10132;50.864;5.176;2022-12-16T12:27:07;2.80;99.90
19941;DHT22;10132;50.864;5.176;2022-12-16T12:29:31;2.60;99.90
19941;DHT22;10132;50.864;5.176;2022-12-16T12:32:05;2.60;99.90
19941;DHT22;10132;50.864;5.176;2022-12-16T12:34:33;2.80;99.90
19941;DHT22;10132;50.864;5.176;2022-12-16T12:37:01;2.70;99.90
19941;DHT22;10132;50.864;5.176;2022-12-16T12:39:29;2.80;99.90
19941;DHT22;10132;50.864;5.176;2022-12-16T12:42:00;2.60;99.90
19941;DHT22;10132;50.864;5.176;2022-12-16T12:44:28;2.60;99.90
19941;DHT22;10132;50.864;5.176;2022-12-16T12:46:56;2.60;99.90
19941;DHT22;10132;50.864;5.176;2022-12-16T12:49:23;2.60;99.90
19941;DHT22;10132;50.864;5.176;2022-12-16T12:51:50;2.50;99.90
19941;DHT22;10132;50.864;5.176;2022-12-16T12:54:19;2.60;99.90
19941;DHT22;10132;50.864;5.176;2022-12-16T12:56:46;2.80;99.90
19941;DHT22;10132;50.864;5.176;2022-12-16T12:59:13;3.00;99.90
19941;DHT22;10132;50.864;5.176;2022-12-16T13:01:35;3.10;99.90
19941;DHT22;10132;50.864;5.176;2022-12-16T13:04:00;3.10;99.90
19941;DHT22;10132;50.864;5.176;2022-12-16T13:06:22;3.20;99.90
19941;DHT22;10132;50.864;5.176;2022-12-16T13:08:52;3.10;99.90
19941;DHT22;10132;50.864;5.176;2022-12-16T13:11:13;3.10;99.90
19941;DHT22;10132;50.864;5.176;2022-12-16T13:13:34;3.10;99.90
19941;DHT22;10132;50.864;5.176;2022-12-16T13:16:09;3.10;99.90
19941;DHT22;10132;50.864;5.176;2022-12-16T13:18:29;3.10;99.90
19941;DHT22;10132;50.864;5.176;2022-12-16T13:20:49;3.10;99.90
19941;DHT22;10132;50.864;5.176;2022-12-16T13:23:27;3.10;99.90
19941;DHT22;10132;50.864;5.176;2022-12-16T13:25:50;3.10;99.90
19941;DHT22;10132;50.864;5.176;2022-12-16T13:28:20;3.50;99.90
19941;DHT22;10132;50.864;5.176;2022-12-16T13:30:58;3.50;99.90
19941;DHT22;10132;50.864;5.176;2022-12-16T13:33:27;3.50;99.90
19941;DHT22;10132;50.864;5.176;2022-12-16T13:35:52;3.70;99.90
19941;DHT22;10132;50.864;5.176;2022-12-16T13:38:19;3.90;99.90
19941;DHT22;10132;50.864;5.176;2022-12-16T13:40:52;4.20;99.90
19941;DHT22;10132;50.864;5.176;2022-12-16T13:43:46;4.20;99.90
19941;DHT22;10132;50.864;5.176;2022-12-16T13:46:14;4.30;99.90
19941;DHT22;10132;50.864;5.176;2022-12-16T13:48:37;4.40;99.90
19941;DHT22;10132;50.864;5.176;2022-12-16T13:50:57;4.60;99.90
19941;DHT22;10132;50.864;5.176;2022-12-16T13:53:17;4.70;99.90
19941;DHT22;10132;50.864;5.176;2022-12-16T13:55:41;4.80;99.90
19941;DHT22;10132;50.864;5.176;2022-12-16T13:58:05;5.00;99.90
19941;DHT22;10132;50.864;5.176;2022-12-16T14:00:27;5.10;99.90
19941;DHT22;10132;50.864;5.176;2022-12-16T14:02:49;5.10;99.90
19941;DHT22;10132;50.864;5.176;2022-12-16T14:05:19;5.00;99.90
19941;DHT22;10132;50.864;5.176;2022-12-16T14:07:40;5.10;99.90
19941;DHT22;10132;50.864;5.176;2022-12-16T14:10:00;5.20;99.90
19941;DHT22;10132;50.864;5.176;2022-12-16T14:12:37;5.30;99.90
19941;DHT22;10132;50.864;5.176;2022-12-16T14:15:21;5.60;99.90
19941;DHT22;10132;50.864;5.176;2022-12-16T14:17:47;5.60;99.90
19941;DHT22;10132;50.864;5.176;2022-12-16T14:20:17;5.60;99.90
19941;DHT22;10132;50.864;5.176;2022-12-16T14:22:50;5.50;99.90
19941;DHT22;10132;50.864;5.176;2022-12-16T14:25:14;5.60;99.90
19941;DHT22;10132;50.864;5.176;2022-12-16T14:27:34;5.70;99.90
19941;DHT22;10132;50.864;5.176;2022-12-16T14:29:54;5.50;99.90
19941;DHT22;10132;50.864;5.176;2022-12-16T14:32:18;4.90;99.90
19941;DHT22;10132;50.864;5.176;2022-12-16T14:34:40;4.50;99.90
19941;DHT22;10132;50.864;5.176;2022-12-16T14:37:06;4.20;99.90
19941;DHT22;10132;50.864;5.176;2022-12-16T14:39:35;4.10;99.90
19941;DHT22;10132;50.864;5.176;2022-12-16T14:41:55;4.40;99.90
19941;DHT22;10132;50.864;5.176;2022-12-16T14:44:16;5.00;99.90